Time;durP1;ratioP1;P1;durP2;ratioP2;P2;SDS_P1;SDS_P2;PMS_P1;PMS_P2;Temp;Humidity;BMP_temperature;BMP_pressure;BME280_temperature;BME280_humidity;BME280_pressure;Samples;Min_cycle;Max_cycle;Signal;HPM_P1;HPM_P2
2023/10/12 00:02:00;;;;;;;5.85;2.63;;;19.80;98.80;;;;;;4975138;28;20023;-38
2023/10/12 00:07:24;;;;;;;4.75;2.53;;;19.80;98.80;;;;;;4974889;28;20050;-35
2023/10/12 00:10:00;;;;;;;3.45;2.38;;;19.80;98.80;;;;;;4974759;28;20027;-41
2023/10/12 00:12:26;;;;;;;6.25;2.63;;;19.80;98.80;;;;;;4974821;28;20015;-43
2023/10/12 00:14:55;;;;;;;4.57;2.65;;;19.80;98.80;;;;;;4974732;28;20042;-34
2023/10/12 00:17:24;;;;;;;3.88;2.50;;;19.80;98.80;;;;;;4973834;28;20027;-34
2023/10/12 00:19:52;;;;;;;4.57;2.40;;;19.80;98.80;;;;;;4974664;28;20037;-37
2023/10/12 00:22:18;;;;;;;5.25;2.60;;;19.80;98.90;;;;;;4974546;28;20041;-42
2023/10/12 00:24:44;;;;;;;3.88;2.53;;;19.90;98.90;;;;;;4974454;28;20030;-44
2023/10/12 00:27:12;;;;;;;4.75;2.55;;;19.80;98.90;;;;;;4974243;28;20070;-34
2023/10/12 00:29:39;;;;;;;3.55;2.53;;;19.80;98.90;;;;;;4974591;28;20023;-35
2023/10/12 00:32:09;;;;;;;4.72;2.40;;;19.80;98.90;;;;;;4974572;28;20027;-37
2023/10/12 00:34:39;;;;;;;4.55;2.80;;;19.80;98.90;;;;;;4956933;28;20023;-35
2023/10/12 00:37:08;;;;;;;4.65;2.42;;;19.80;98.90;;;;;;4974041;28;20097;-36
2023/10/12 00:39:47;;;;;;;6.25;2.40;;;19.80;98.90;;;;;;4974540;28;20491;-36
2023/10/12 00:42:18;;;;;;;3.85;2.50;;;19.80;98.90;;;;;;4974282;28;20027;-36
2023/10/12 00:44:52;;;;;;;5.57;2.78;;;19.80;98.90;;;;;;4974119;28;20476;-37
2023/10/12 00:47:29;;;;;;;4.50;2.50;;;19.80;98.90;;;;;;4973887;28;20364;-34
2023/10/12 00:49:58;;;;;;;5.65;2.55;;;19.80;98.90;;;;;;4974070;28;20054;-38
2023/10/12 00:52:26;;;;;;;5.72;2.45;;;19.80;98.90;;;;;;4973944;28;20432;-41
2023/10/12 00:55:02;;;;;;;4.97;2.63;;;19.80;98.90;;;;;;4973942;28;20540;-39
2023/10/12 00:57:28;;;;;;;3.88;2.20;;;19.80;98.90;;;;;;4973825;28;20030;-38
2023/10/12 00:59:54;;;;;;;5.43;2.70;;;19.80;98.90;;;;;;4973817;28;20089;-36
2023/10/12 01:02:24;;;;;;;5.72;2.55;;;19.80;98.90;;;;;;4974468;28;20085;-38
2023/10/12 01:04:53;;;;;;;5.93;2.78;;;19.80;98.90;;;;;;4974290;28;20027;-39
2023/10/12 01:07:20;;;;;;;3.70;2.30;;;19.80;98.90;;;;;;4973571;28;20023;-40
2023/10/12 01:09:49;;;;;;;5.68;2.67;;;19.80;99.00;;;;;;4973742;28;20472;-39
2023/10/12 01:12:18;;;;;;;3.40;2.30;;;19.80;98.90;;;;;;4973547;28;20130;-35
2023/10/12 01:14:47;;;;;;;4.43;2.63;;;19.80;98.90;;;;;;4973589;28;20022;-43
2023/10/12 01:17:17;;;;;;;3.85;2.60;;;19.80;99.00;;;;;;4973567;28;20027;-41
2023/10/12 01:19:47;;;;;;;4.85;2.88;;;19.80;99.00;;;;;;4956238;28;20035;-38
2023/10/12 01:22:14;;;;;;;6.13;2.88;;;19.80;99.00;;;;;;4973552;28;20034;-37
2023/10/12 01:27:21;;;;;;;5.53;2.50;;;19.80;99.00;;;;;;4973464;28;20037;-37
2023/10/12 01:29:47;;;;;;;3.65;2.35;;;19.80;99.00;;;;;;4972297;28;20026;-37
2023/10/12 01:34:44;;;;;;;4.93;2.60;;;19.80;99.00;;;;;;4973214;28;20102;-38
2023/10/12 01:37:20;;;;;;;5.00;3.00;;;19.80;99.00;;;;;;4973526;28;20038;-40
2023/10/12 01:39:55;;;;;;;4.75;2.60;;;19.80;99.00;;;;;;4973349;28;20416;-36
2023/10/12 01:42:21;;;;;;;6.07;2.70;;;19.70;99.00;;;;;;4973178;28;20440;-41
2023/10/12 01:44:47;;;;;;;4.13;2.45;;;19.80;99.00;;;;;;4973087;28;20031;-37
2023/10/12 01:47:15;;;;;;;3.92;2.30;;;19.80;99.00;;;;;;4973088;28;20520;-43
2023/10/12 01:49:41;;;;;;;4.40;2.78;;;19.80;99.00;;;;;;4973309;28;20026;-38
2023/10/12 01:52:08;;;;;;;3.15;2.42;;;19.80;99.10;;;;;;4973231;28;20018;-36
2023/10/12 01:54:42;;;;;;;4.80;2.50;;;19.70;99.00;;;;;;4973298;28;20015;-42
2023/10/12 01:57:09;;;;;;;5.13;2.60;;;19.70;99.10;;;;;;4973156;28;20468;-40
2023/10/12 01:59:35;;;;;;;4.15;2.60;;;19.70;99.10;;;;;;4977115;28;20027;-38
2023/10/12 02:02:13;;;;;;;6.88;2.60;;;19.70;99.10;;;;;;4978396;28;20343;-35
2023/10/12 02:04:40;;;;;;;5.13;2.60;;;19.70;99.10;;;;;;4973298;28;20089;-37
2023/10/12 02:07:07;;;;;;;4.35;2.95;;;19.70;99.10;;;;;;4955756;28;20101;-38
2023/10/12 02:09:34;;;;;;;4.90;3.00;;;19.70;99.10;;;;;;4973134;28;20023;-39
2023/10/12 02:12:09;;;;;;;6.55;2.80;;;19.70;99.10;;;;;;4972738;28;20030;-38
2023/10/12 02:14:39;;;;;;;4.78;2.67;;;19.70;99.10;;;;;;4972729;28;20026;-35
2023/10/12 02:17:08;;;;;;;4.60;2.65;;;19.70;99.10;;;;;;4972621;28;20428;-36
2023/10/12 02:19:43;;;;;;;4.00;2.70;;;19.70;99.10;;;;;;4972729;28;20147;-35
2023/10/12 02:22:18;;;;;;;;;;;19.70;99.10;;;;;;4973206;28;20042;-34
2023/10/12 02:24:57;;;;;;;5.85;2.95;;;19.70;99.10;;;;;;4972583;28;19906;-37
2023/10/12 02:27:24;;;;;;;5.25;2.70;;;19.70;99.10;;;;;;4972433;28;20031;-35
2023/10/12 02:29:53;;;;;;;6.25;2.50;;;19.70;99.10;;;;;;4972705;28;20322;-39
2023/10/12 02:32:23;;;;;;;5.15;2.63;;;19.70;99.10;;;;;;4972989;28;20027;-34
2023/10/12 02:34:55;;;;;;;4.60;2.80;;;19.70;99.10;;;;;;4972475;28;20019;-38
2023/10/12 02:37:24;;;;;;;6.65;2.50;;;19.70;99.10;;;;;;4972338;28;20039;-34
2023/10/12 02:39:53;;;;;;;4.85;2.63;;;19.70;99.10;;;;;;4971928;28;20393;-37
2023/10/12 02:42:38;;;;;;;4.22;2.97;;;19.70;99.10;;;;;;4972694;28;20019;-34
2023/10/12 02:45:41;;;;;;;5.57;2.58;;;19.70;99.10;;;;;;4972590;28;20035;-34
2023/10/12 02:47:58;;;;;;;3.95;2.38;;;19.70;99.10;;;;;;4969049;28;20066;-39
2023/10/12 02:50:27;;;;;;;4.10;2.42;;;19.70;99.10;;;;;;4972358;28;20074;-35
2023/10/12 02:52:53;;;;;;;5.93;2.83;;;19.70;99.10;;;;;;4972339;28;20031;-36
2023/10/12 02:57:56;;;;;;;5.57;2.60;;;19.70;99.10;;;;;;4972333;28;20023;-36
2023/10/12 03:00:35;;;;;;;4.43;2.60;;;19.70;99.10;;;;;;4972561;28;20655;-35
2023/10/12 03:03:09;;;;;;;4.47;3.03;;;19.70;99.10;;;;;;4972387;28;20029;-34
2023/10/12 03:05:46;;;;;;;5.88;2.88;;;19.70;99.10;;;;;;4972450;28;20045;-37
2023/10/12 03:08:30;;;;;;;4.65;3.10;;;19.70;99.10;;;;;;4972222;28;20035;-36
2023/10/12 03:13:54;;;;;;;5.82;3.00;;;19.70;99.10;;;;;;4972432;28;20029;-42
2023/10/12 03:18:46;;;;;;;4.75;2.47;;;19.70;99.10;;;;;;4972139;28;20130;-34
2023/10/12 03:21:12;;;;;;;5.00;2.70;;;19.70;99.10;;;;;;4972158;28;20536;-34
2023/10/12 03:23:40;;;;;;;5.72;2.90;;;19.70;99.10;;;;;;4972013;28;20121;-35
2023/10/12 03:29:18;;;;;;;3.53;2.60;;;19.60;99.10;;;;;;4939227;28;20035;-34
2023/10/12 03:36:58;;;;;;;4.32;2.75;;;19.70;99.50;;;;;;4971968;28;20030;-38
2023/10/12 03:39:27;;;;;;;4.57;2.40;;;19.70;99.20;;;;;;4972090;28;20038;-38
2023/10/12 03:47:05;;;;;;;10.00;3.13;;;19.60;99.20;;;;;;4971770;28;20045;-36
2023/10/12 03:49:32;;;;;;;3.65;2.72;;;19.60;99.20;;;;;;4971973;28;20366;-35
2023/10/12 03:52:13;;;;;;;4.18;2.85;;;19.60;99.20;;;;;;4972204;28;20026;-35
2023/10/12 03:54:45;;;;;;;4.15;2.75;;;19.60;99.20;;;;;;4975246;28;20015;-37
2023/10/12 03:57:19;;;;;;;4.78;2.55;;;19.60;99.20;;;;;;4975211;28;20038;-37
2023/10/12 04:00:22;;;;;;;4.05;2.50;;;19.60;99.20;;;;;;4975348;28;20035;-38
2023/10/12 04:03:12;;;;;;;5.00;2.58;;;19.60;99.20;;;;;;4975131;28;20058;-37
2023/10/12 04:08:00;;;;;;;5.30;2.50;;;19.60;99.20;;;;;;4975031;28;20035;-37
2023/10/12 04:16:27;;;;;;;5.15;2.97;;;19.60;99.30;;;;;;4974768;28;20023;-37
2023/10/12 04:21:23;;;;;;;7.65;3.00;;;19.60;99.30;;;;;;4974907;28;20484;-36
2023/10/12 04:29:10;;;;;;;3.53;2.40;;;19.60;99.30;;;;;;4974768;28;20096;-39
2023/10/12 04:34:10;;;;;;;4.78;2.50;;;19.60;99.30;;;;;;4974664;28;20027;-34
2023/10/12 04:39:16;;;;;;;6.28;2.50;;;19.60;99.30;;;;;;4974647;28;20058;-36
2023/10/12 04:46:58;;;;;;;3.95;2.58;;;19.60;99.30;;;;;;4974001;28;20066;-38
2023/10/12 04:57:28;;;;;;;4.18;2.47;;;19.60;99.40;;;;;;4974031;28;20086;-34
2023/10/12 05:07:56;;;;;;;4.50;2.75;;;19.50;99.30;;;;;;4973697;28;20057;-41
2023/10/12 05:13:04;;;;;;;3.83;2.80;;;19.60;99.30;;;;;;4974098;28;20030;-39
2023/10/12 05:15:40;;;;;;;3.80;2.78;;;19.60;99.40;;;;;;4973945;28;20373;-38
2023/10/12 05:18:10;;;;;;;4.95;2.67;;;19.60;99.40;;;;;;4973595;28;20038;-34
2023/10/12 05:20:42;;;;;;;4.55;2.50;;;19.60;99.40;;;;;;4973851;28;20031;-43
2023/10/12 05:23:09;;;;;;;7.43;3.03;;;19.60;99.30;;;;;;4973922;28;20085;-42
2023/10/12 05:28:31;;;;;;;5.20;2.83;;;19.60;99.40;;;;;;4973624;28;20539;-35
2023/10/12 05:31:01;;;;;;;3.65;2.50;;;19.60;99.30;;;;;;4973515;28;20031;-35
2023/10/12 05:36:17;;;;;;;7.22;2.70;;;19.50;99.30;;;;;;4973424;28;20026;-48
2023/10/12 05:38:49;;;;;;;6.60;2.53;;;19.60;99.40;;;;;;4973478;28;20034;-35
2023/10/12 05:41:34;;;;;;;3.08;2.55;;;19.60;99.40;;;;;;4973338;28;20031;-35
2023/10/12 05:44:08;;;;;;;3.20;2.33;;;19.60;99.40;;;;;;4973447;28;20396;-43
2023/10/12 05:46:34;;;;;;;4.47;2.70;;;19.50;99.40;;;;;;4973115;28;20027;-37
2023/10/12 05:49:02;;;;;;;3.63;2.20;;;19.60;99.40;;;;;;4975090;28;20058;-36
2023/10/12 05:51:28;;;;;;;4.25;2.65;;;19.60;99.40;;;;;;4978265;28;20165;-39
2023/10/12 05:54:03;;;;;;;3.35;2.42;;;19.60;99.40;;;;;;4976243;28;20500;-37
2023/10/12 05:56:34;;;;;;;3.35;2.33;;;19.50;99.30;;;;;;4973063;28;20452;-38
2023/10/12 05:59:00;;;;;;;4.97;2.65;;;19.50;99.40;;;;;;4973195;28;20392;-37
2023/10/12 06:01:32;;;;;;;3.80;2.17;;;19.60;99.40;;;;;;4973092;28;20109;-39
2023/10/12 06:04:05;;;;;;;4.70;2.80;;;19.50;99.40;;;;;;4973011;28;20438;-38
2023/10/12 06:06:35;;;;;;;3.83;2.47;;;19.60;99.40;;;;;;4973103;28;20030;-36
2023/10/12 06:09:23;;;;;;;4.43;2.58;;;19.60;99.40;;;;;;4973098;28;20261;-39
2023/10/12 06:11:50;;;;;;;4.43;2.30;;;19.60;99.40;;;;;;4972863;28;20018;-37
2023/10/12 06:14:21;;;;;;;5.93;2.55;;;19.60;99.40;;;;;;4972571;28;20025;-39
2023/10/12 06:16:54;;;;;;;4.95;2.42;;;19.50;99.40;;;;;;4972260;28;20038;-35
2023/10/12 06:19:26;;;;;;;4.80;2.40;;;19.60;99.40;;;;;;4972789;28;20039;-38
2023/10/12 06:21:53;;;;;;;3.40;2.08;;;19.60;99.40;;;;;;4972824;28;20448;-36
2023/10/12 06:24:35;;;;;;;4.13;2.58;;;19.60;99.40;;;;;;4972779;28;20030;-39
2023/10/12 06:29:45;;;;;;;3.55;2.45;;;19.60;99.40;;;;;;4972791;28;20031;-34
2023/10/12 06:32:17;;;;;;;3.97;2.47;;;19.60;99.40;;;;;;4972661;28;20089;-39
2023/10/12 06:34:43;;;;;;;4.65;2.35;;;19.50;99.30;;;;;;4972603;28;20102;-39
2023/10/12 06:37:49;;;;;;;4.53;2.58;;;19.60;99.40;;;;;;4972492;28;20584;-36
2023/10/12 06:45:51;;;;;;;3.60;2.22;;;19.60;99.40;;;;;;4972377;28;20281;-42
2023/10/12 06:51:03;;;;;;;4.28;2.28;;;19.60;99.40;;;;;;4972398;28;20054;-36
2023/10/12 06:53:34;;;;;;;3.42;2.55;;;19.60;99.40;;;;;;4972454;28;20031;-35
2023/10/12 06:56:24;;;;;;;4.50;2.58;;;19.60;99.40;;;;;;4954821;28;20027;-36
2023/10/12 06:59:13;;;;;;;6.72;2.47;;;19.60;99.40;;;;;;4972393;28;20019;-37
2023/10/12 07:04:16;;;;;;;3.67;2.40;;;19.50;99.40;;;;;;4972294;28;20073;-38
2023/10/12 07:07:07;;;;;;;4.88;2.85;;;19.60;99.40;;;;;;4972052;28;20035;-36
2023/10/12 07:09:39;;;;;;;3.88;2.28;;;19.60;99.50;;;;;;4972340;28;20026;-34
2023/10/12 07:12:13;;;;;;;3.67;2.30;;;19.60;99.40;;;;;;4972304;28;20034;-40
2023/10/12 07:14:55;;;;;;;2.80;2.15;;;19.60;99.50;;;;;;4954651;28;20389;-34
2023/10/12 07:17:34;;;;;;;3.00;2.25;;;19.50;99.40;;;;;;4972596;28;20315;-34
2023/10/12 07:20:00;;;;;;;3.75;2.28;;;19.60;99.40;;;;;;4972235;28;20031;-35
2023/10/12 07:22:25;;;;;;;4.30;2.60;;;19.50;99.40;;;;;;4972129;28;20102;-41
2023/10/12 07:24:54;;;;;;;3.50;2.42;;;19.50;99.40;;;;;;4972140;28;20150;-34
2023/10/12 07:27:22;;;;;;;3.47;2.58;;;19.60;99.40;;;;;;4974145;28;20106;-34
2023/10/12 07:30:00;;;;;;;4.68;2.53;;;19.60;99.40;;;;;;4976024;28;20074;-34
2023/10/12 07:32:40;;;;;;;4.28;2.72;;;19.60;99.40;;;;;;4975780;28;20408;-34
2023/10/12 07:35:08;;;;;;;3.40;2.20;;;19.60;99.50;;;;;;4975636;28;20031;-37
2023/10/12 07:37:41;;;;;;;3.80;2.65;;;19.60;99.40;;;;;;4975819;28;20074;-36
2023/10/12 07:40:48;;;;;;;5.20;2.55;;;19.60;99.40;;;;;;4975804;28;20022;-36
2023/10/12 07:43:04;;;;;;;3.75;2.45;;;19.50;99.40;;;;;;4973378;28;20038;-36
2023/10/12 07:45:37;;;;;;;15.93;4.10;;;19.60;99.40;;;;;;4975399;28;20031;-36
2023/10/12 07:48:09;;;;;;;9.18;4.28;;;19.60;99.60;;;;;;4975338;28;20078;-38
2023/10/12 07:50:45;;;;;;;12.82;4.43;;;19.50;99.70;;;;;;4975748;28;20058;-36
2023/10/12 07:53:27;;;;;;;13.32;4.15;;;19.40;99.80;;;;;;4975455;28;20019;-37
2023/10/12 07:56:00;;;;;;;14.25;5.05;;;19.40;99.80;;;;;;4975196;28;20031;-37
2023/10/12 07:58:29;;;;;;;11.00;4.25;;;19.40;99.80;;;;;;4975641;28;20057;-36
2023/10/12 08:03:49;;;;;;;8.77;3.90;;;19.40;99.70;;;;;;4975301;28;20062;-36
2023/10/12 08:06:15;;;;;;;10.57;3.72;;;19.40;99.70;;;;;;4976216;28;20023;-36
2023/10/12 08:08:41;;;;;;;9.73;4.18;;;19.50;99.70;;;;;;4975192;28;20039;-36
2023/10/12 08:11:19;;;;;;;11.27;4.07;;;19.40;99.70;;;;;;4975583;28;20022;-38
2023/10/12 08:13:54;;;;;;;8.43;4.32;;;19.50;99.70;;;;;;4975191;28;20041;-36
2023/10/12 08:16:27;;;;;;;11.63;3.78;;;19.50;99.70;;;;;;4974750;28;20531;-34
2023/10/12 08:21:32;;;;;;;14.77;4.43;;;19.40;99.70;;;;;;4974843;28;20029;-35
2023/10/12 08:31:55;;;;;;;13.20;4.30;;;19.30;99.80;;;;;;4974819;28;20050;-37
2023/10/12 08:39:49;;;;;;;9.82;4.60;;;19.30;99.80;;;;;;4974062;28;20031;-36
2023/10/12 08:43:06;;;;;;;13.15;4.50;;;19.40;99.80;;;;;;4974603;28;20106;-36
2023/10/12 08:45:08;;;;;;;8.05;3.90;;;19.40;99.80;;;;;;4963906;28;20513;-38
2023/10/12 08:50:08;;;;;;;12.50;3.95;;;19.40;99.70;;;;;;4974551;28;20023;-36
2023/10/12 08:52:38;;;;;;;12.23;4.18;;;19.40;99.70;;;;;;4974339;28;20480;-36
2023/10/12 08:55:12;;;;;;;10.30;4.20;;;19.40;99.70;;;;;;4974150;28;20058;-37
2023/10/12 08:57:55;;;;;;;9.90;4.53;;;19.40;99.70;;;;;;4974041;28;20027;-37
2023/10/12 09:00:40;;;;;;;7.28;4.03;;;19.40;99.70;;;;;;4974192;28;20081;-37
2023/10/12 09:05:51;;;;;;;7.75;4.07;;;19.40;99.70;;;;;;4973984;28;20416;-38
2023/10/12 09:10:49;;;;;;;8.23;4.10;;;19.50;99.70;;;;;;4974091;28;20113;-36
2023/10/12 09:13:18;;;;;;;6.82;4.22;;;19.40;99.70;;;;;;4956746;28;20105;-37
2023/10/12 09:15:54;;;;;;;7.88;4.18;;;19.40;99.70;;;;;;4973721;28;20065;-36
2023/10/12 09:18:21;;;;;;;6.65;4.18;;;19.50;99.80;;;;;;4973891;28;20031;-37
2023/10/12 09:31:14;;;;;;;11.43;4.45;;;19.50;99.70;;;;;;4974833;28;20023;-37
2023/10/12 09:36:27;;;;;;;9.32;4.22;;;19.40;99.90;;;;;;4974097;28;20436;-39
2023/10/12 09:38:57;;;;;;;8.13;4.60;;;19.40;99.90;;;;;;4973478;28;20026;-38
2023/10/12 09:41:28;;;;;;;13.57;4.38;;;19.40;99.90;;;;;;4973415;28;20050;-39
2023/10/12 09:43:56;;;;;;;12.80;4.15;;;19.40;99.90;;;;;;4973405;28;20377;-38
2023/10/12 09:46:27;;;;;;;7.45;4.07;;;19.40;99.90;;;;;;4973064;28;20019;-39
2023/10/12 09:49:08;;;;;;;8.77;4.10;;;19.40;99.90;;;;;;4973201;28;20021;-38
2023/10/12 09:51:45;;;;;;;9.30;4.60;;;19.40;99.90;;;;;;4972628;28;20026;-38
2023/10/12 09:54:18;;;;;;;9.32;4.55;;;19.40;99.90;;;;;;4973215;28;20027;-41
2023/10/12 09:56:57;;;;;;;11.68;4.05;;;19.40;99.90;;;;;;4972990;28;20381;-40
2023/10/12 09:59:23;;;;;;;7.40;4.32;;;19.40;99.90;;;;;;4973094;28;20026;-38
2023/10/12 10:01:50;;;;;;;6.07;3.60;;;19.40;99.90;;;;;;4973061;28;20496;-38
2023/10/12 10:07:24;;;;;;;7.82;4.35;;;19.50;99.90;;;;;;4972940;28;20027;-40
2023/10/12 10:09:56;;;;;;;5.60;3.67;;;19.50;99.90;;;;;;4972853;28;20023;-38
2023/10/12 10:12:27;;;;;;;8.75;4.28;;;19.50;99.90;;;;;;4972901;28;20492;-37
2023/10/12 10:14:57;;;;;;;7.35;4.03;;;19.50;99.90;;;;;;4972819;28;20429;-42
2023/10/12 10:17:24;;;;;;;7.75;4.03;;;19.50;99.90;;;;;;4972789;28;20026;-39
2023/10/12 10:20:19;;;;;;;7.97;4.07;;;19.50;99.90;;;;;;4972841;28;20026;-39
2023/10/12 10:22:50;;;;;;;9.82;3.60;;;19.50;99.90;;;;;;4972695;28;20031;-38
2023/10/12 10:25:18;;;;;;;7.47;4.22;;;19.50;99.90;;;;;;4972999;28;20113;-39
2023/10/12 10:27:43;;;;;;;6.45;3.45;;;19.50;99.90;;;;;;4972554;28;20041;-44
2023/10/12 10:30:28;;;;;;;8.25;4.10;;;19.50;99.90;;;;;;4972746;28;20019;-41
2023/10/12 10:33:13;;;;;;;9.18;4.22;;;19.50;99.90;;;;;;4972825;28;20468;-41
2023/10/12 10:36:24;;;;;;;8.45;3.92;;;19.60;99.90;;;;;;4973074;28;20420;-40
2023/10/12 10:41:22;;;;;;;14.10;4.20;;;19.60;99.90;;;;;;4972575;28;20025;-38
2023/10/12 10:43:47;;;;;;;11.05;4.40;;;19.60;99.90;;;;;;4972579;28;20030;-41
2023/10/12 10:46:16;;;;;;;9.35;4.43;;;19.70;99.90;;;;;;4972246;28;20027;-38
2023/10/12 10:48:42;;;;;;;11.02;4.20;;;19.70;99.90;;;;;;4972499;28;20468;-41
2023/10/12 10:51:24;;;;;;;15.75;4.63;;;19.70;99.90;;;;;;4972563;28;20035;-46
2023/10/12 10:53:52;;;;;;;9.68;4.30;;;19.70;99.90;;;;;;4972514;28;20491;-41
2023/10/12 10:56:34;;;;;;;8.68;4.82;;;19.70;99.90;;;;;;4972462;28;20058;-46
2023/10/12 10:59:00;;;;;;;12.02;4.70;;;19.80;99.90;;;;;;4972514;28;20033;-41
2023/10/12 11:01:26;;;;;;;11.93;4.00;;;19.80;99.90;;;;;;4956127;28;20019;-41
2023/10/12 11:03:53;;;;;;;10.60;4.22;;;19.80;99.90;;;;;;4976287;28;20081;-39
2023/10/12 11:06:21;;;;;;;9.32;4.25;;;19.80;99.90;;;;;;4976208;28;20058;-41
2023/10/12 11:09:07;;;;;;;9.05;3.92;;;19.90;99.90;;;;;;4976258;28;20089;-40
2023/10/12 11:11:44;;;;;;;10.30;3.78;;;19.90;99.90;;;;;;4976319;28;20023;-40
2023/10/12 11:14:13;;;;;;;12.95;4.13;;;19.90;99.90;;;;;;4976102;28;20029;-40
2023/10/12 11:16:43;;;;;;;9.70;4.03;;;19.90;99.90;;;;;;4975922;28;20029;-41
2023/10/12 11:19:09;;;;;;;10.70;4.00;;;19.90;99.90;;;;;;4958810;28;20427;-41
2023/10/12 11:21:35;;;;;;;12.85;3.80;;;19.90;99.90;;;;;;4976336;28;20071;-43
2023/10/12 11:24:03;;;;;;;12.07;3.85;;;19.90;99.90;;;;;;4976057;28;20027;-41
2023/10/12 11:26:39;;;;;;;10.48;4.10;;;20.00;99.90;;;;;;4975649;28;20022;-40
2023/10/12 11:29:06;;;;;;;12.88;4.57;;;20.00;99.90;;;;;;4975719;28;20441;-41
2023/10/12 11:31:33;;;;;;;8.98;4.20;;;20.00;99.90;;;;;;4975976;28;20026;-38
2023/10/12 11:34:06;;;;;;;11.55;4.05;;;20.00;99.90;;;;;;4975836;28;20034;-40
2023/10/12 11:36:35;;;;;;;9.52;4.35;;;20.00;99.80;;;;;;4975657;28;20046;-38
2023/10/12 11:39:04;;;;;;;9.60;3.83;;;20.00;99.60;;;;;;4975761;28;20045;-39
2023/10/12 11:41:30;;;;;;;17.73;4.10;;;20.00;99.50;;;;;;4975420;28;20027;-41
2023/10/12 11:44:00;;;;;;;8.90;4.15;;;20.00;99.40;;;;;;4975614;28;20110;-42
2023/10/12 11:46:39;;;;;;;9.82;4.20;;;20.10;99.40;;;;;;4975443;28;20051;-40
2023/10/12 11:49:10;;;;;;;10.60;3.95;;;20.10;99.50;;;;;;4975522;28;20496;-38
2023/10/12 11:51:52;;;;;;;9.70;3.83;;;20.10;99.40;;;;;;4975466;28;20031;-43
2023/10/12 11:54:21;;;;;;;12.65;3.90;;;20.10;99.40;;;;;;4975521;28;20015;-42
2023/10/12 11:56:52;;;;;;;13.13;3.78;;;20.20;99.40;;;;;;4975144;28;20472;-42
2023/10/12 11:59:30;;;;;;;6.60;3.40;;;20.20;99.40;;;;;;4975495;28;20077;-40
2023/10/12 12:02:00;;;;;;;12.45;4.05;;;20.20;99.40;;;;;;4975307;28;20027;-43
2023/10/12 12:04:50;;;;;;;13.15;3.85;;;20.20;99.40;;;;;;4975608;28;20539;-41
2023/10/12 12:07:13;;;;;;;12.45;3.83;;;20.20;99.40;;;;;;4974260;28;20050;-40
2023/10/12 12:09:48;;;;;;;11.55;3.50;;;20.20;98.70;;;;;;4974034;28;20022;-37
2023/10/12 12:12:16;;;;;;;6.38;3.28;;;20.30;98.30;;;;;;4974934;28;20492;-42
2023/10/12 12:14:48;;;;;;;11.10;3.22;;;20.20;98.30;;;;;;4974138;28;20504;-39
2023/10/12 12:17:17;;;;;;;14.88;3.33;;;20.30;98.20;;;;;;4974899;28;20031;-44
2023/10/12 12:19:43;;;;;;;10.52;3.78;;;20.30;98.10;;;;;;4974894;28;20031;-38
2023/10/12 12:22:15;;;;;;;18.85;3.88;;;20.30;98.10;;;;;;4974906;28;20551;-38
2023/10/12 12:24:44;;;;;;;11.05;3.80;;;20.30;98.00;;;;;;4974819;28;20369;-42
2023/10/12 12:29:55;;;;;;;16.50;3.55;;;20.30;98.00;;;;;;4974924;28;20065;-43
2023/10/12 12:32:21;;;;;;;8.70;3.67;;;20.40;98.00;;;;;;4975020;28;20430;-44
2023/10/12 12:34:51;;;;;;;13.55;3.33;;;20.40;98.10;;;;;;4974628;28;20027;-42
2023/10/12 12:37:17;;;;;;;17.88;3.75;;;20.30;98.10;;;;;;4974480;28;20042;-40
2023/10/12 12:39:43;;;;;;;14.63;3.97;;;20.40;98.20;;;;;;4974495;28;20501;-42
2023/10/12 12:42:09;;;;;;;8.65;3.30;;;20.40;97.70;;;;;;4974584;28;20042;-41
2023/10/12 12:44:36;;;;;;;8.15;3.55;;;20.40;97.40;;;;;;4974428;28;20034;-44
2023/10/12 12:47:02;;;;;;;8.38;3.20;;;20.40;97.30;;;;;;4974229;28;20095;-38
2023/10/12 12:49:29;;;;;;;14.75;3.42;;;20.40;97.30;;;;;;4957060;28;20023;-44
2023/10/12 12:51:57;;;;;;;5.57;3.10;;;20.40;97.40;;;;;;4974397;28;20400;-40
2023/10/12 12:54:24;;;;;;;8.18;2.95;;;20.40;97.30;;;;;;4974241;28;20023;-44
2023/10/12 12:56:53;;;;;;;9.68;3.28;;;20.50;97.20;;;;;;4974154;28;20388;-42
2023/10/12 12:59:24;;;;;;;12.35;3.38;;;20.50;97.10;;;;;;4974484;28;20101;-45
2023/10/12 13:01:50;;;;;;;11.02;3.30;;;20.50;96.70;;;;;;4976987;28;20027;-41
2023/10/12 13:04:17;;;;;;;14.35;3.80;;;20.50;96.70;;;;;;4974127;28;20447;-41
2023/10/12 13:06:43;;;;;;;8.63;3.47;;;20.50;96.80;;;;;;4974565;28;20393;-37
2023/10/12 13:11:53;;;;;;;;;;;20.50;97.30;;;;;;4974700;28;20038;-41
2023/10/12 13:14:19;;;;;;;10.95;3.55;;;20.50;97.10;;;;;;4973972;28;19906;-38
2023/10/12 13:16:44;;;;;;;10.88;3.50;;;20.50;97.30;;;;;;4973672;28;20023;-38
2023/10/12 13:19:11;;;;;;;9.90;3.65;;;20.50;97.40;;;;;;4973795;28;20019;-37
2023/10/12 13:21:41;;;;;;;11.60;3.50;;;20.50;97.60;;;;;;4973861;28;20097;-37
2023/10/12 13:24:08;;;;;;;10.90;3.88;;;20.50;97.60;;;;;;4975268;28;20374;-37
2023/10/12 13:26:34;;;;;;;16.55;3.70;;;20.50;97.70;;;;;;4974121;28;20085;-38
2023/10/12 13:29:02;;;;;;;12.68;3.60;;;20.40;97.70;;;;;;4974575;28;20023;-37
2023/10/12 13:31:30;;;;;;;8.77;3.50;;;20.40;97.80;;;;;;4974483;28;20500;-37
2023/10/12 13:33:55;;;;;;;12.57;3.88;;;20.40;97.90;;;;;;4974273;28;20023;-38
2023/10/12 13:36:21;;;;;;;12.48;3.75;;;20.30;97.90;;;;;;4974102;28;20019;-38
2023/10/12 13:38:47;;;;;;;10.65;3.45;;;20.30;97.90;;;;;;4956828;28;20536;-38
2023/10/12 13:41:13;;;;;;;10.35;3.88;;;20.30;97.90;;;;;;4973428;28;20101;-34
2023/10/12 13:43:38;;;;;;;8.82;3.60;;;20.30;98.00;;;;;;4973456;28;20033;-34
2023/10/12 13:46:12;;;;;;;5.90;3.58;;;20.30;98.00;;;;;;4973227;28;20027;-34
2023/10/12 13:48:38;;;;;;;10.63;3.92;;;20.30;98.00;;;;;;4973159;28;20061;-37
2023/10/12 13:51:04;;;;;;;6.55;3.22;;;20.30;98.00;;;;;;4973232;28;20058;-34
2023/10/12 13:53:36;;;;;;;8.80;3.50;;;20.30;98.10;;;;;;4973293;28;20019;-34
2023/10/12 13:56:08;;;;;;;5.85;3.30;;;20.20;98.40;;;;;;4973335;28;20026;-34
2023/10/12 13:58:38;;;;;;;6.15;3.00;;;20.30;98.10;;;;;;4973141;28;20035;-34
2023/10/12 14:01:05;;;;;;;9.75;3.53;;;20.30;98.10;;;;;;4971697;28;20121;-37
2023/10/12 14:03:38;;;;;;;11.90;4.00;;;20.30;98.10;;;;;;4973121;28;20038;-35
2023/10/12 14:06:06;;;;;;;10.90;3.65;;;20.20;98.00;;;;;;4955605;28;20041;-41
2023/10/12 14:08:36;;;;;;;15.23;3.55;;;20.30;98.00;;;;;;4972810;28;20033;-34
2023/10/12 14:11:03;;;;;;;12.95;3.42;;;20.30;98.10;;;;;;4973055;28;20022;-35
2023/10/12 14:13:30;;;;;;;9.68;3.60;;;20.30;98.10;;;;;;4972916;28;20057;-37
2023/10/12 14:15:58;;;;;;;12.25;3.60;;;20.40;98.00;;;;;;4972827;28;20030;-38
2023/10/12 14:18:28;;;;;;;8.32;3.40;;;20.40;98.00;;;;;;4972912;28;20429;-37
2023/10/12 14:20:54;;;;;;;12.07;3.72;;;20.40;98.00;;;;;;4972805;28;20026;-34
2023/10/12 14:23:25;;;;;;;12.07;3.70;;;20.40;98.10;;;;;;4972873;28;20030;-37
2023/10/12 14:25:51;;;;;;;9.05;3.40;;;20.40;98.20;;;;;;4955254;28;20026;-34
2023/10/12 14:28:17;;;;;;;15.05;3.83;;;20.50;98.30;;;;;;4972995;28;20031;-34
2023/10/12 14:30:50;;;;;;;12.30;3.90;;;20.50;98.20;;;;;;4972676;28;20023;-34
2023/10/12 14:33:19;;;;;;;11.35;3.08;;;20.50;98.10;;;;;;4972775;28;20041;-35
2023/10/12 14:35:46;;;;;;;9.65;3.10;;;20.50;98.10;;;;;;4972085;28;20102;-34
2023/10/12 14:38:16;;;;;;;6.57;3.40;;;20.60;98.10;;;;;;4972394;28;20039;-34
2023/10/12 14:40:43;;;;;;;10.27;3.72;;;20.50;98.00;;;;;;4972634;28;20030;-34
2023/10/12 14:43:11;;;;;;;12.50;3.42;;;20.60;97.90;;;;;;4972659;28;20034;-40
2023/10/12 14:45:48;;;;;;;16.33;3.20;;;20.60;97.80;;;;;;4972355;28;20498;-38
2023/10/12 14:48:16;;;;;;;13.82;3.80;;;20.60;97.70;;;;;;4972371;28;20018;-34
2023/10/12 14:50:46;;;;;;;11.77;3.55;;;20.60;97.70;;;;;;4972564;28;20033;-35
2023/10/12 14:53:21;;;;;;;15.18;3.80;;;20.60;97.70;;;;;;4972330;28;20400;-37
2023/10/12 14:55:51;;;;;;;11.68;3.42;;;20.60;97.70;;;;;;4972437;28;20031;-36
2023/10/12 14:58:17;;;;;;;10.35;3.85;;;20.60;97.30;;;;;;4972372;28;20527;-36
2023/10/12 15:00:44;;;;;;;8.20;3.22;;;20.70;97.30;;;;;;4972400;28;20041;-35
2023/10/12 15:03:15;;;;;;;10.73;3.60;;;20.70;97.30;;;;;;4972328;28;20400;-36
2023/10/12 15:05:42;;;;;;;15.95;3.60;;;20.70;97.30;;;;;;4972214;28;20031;-37
2023/10/12 15:08:09;;;;;;;12.80;3.67;;;20.70;97.30;;;;;;4972094;28;20031;-34
2023/10/12 15:10:43;;;;;;;11.20;3.60;;;20.70;97.20;;;;;;4972472;28;20385;-34
2023/10/12 15:13:13;;;;;;;10.27;3.45;;;20.80;97.20;;;;;;4972284;28;20026;-34
2023/10/12 15:15:47;;;;;;;10.70;3.60;;;20.80;97.20;;;;;;4972306;28;20045;-34
2023/10/12 15:18:23;;;;;;;10.40;3.45;;;20.80;97.20;;;;;;4974510;28;20372;-35
2023/10/12 15:20:52;;;;;;;8.38;3.22;;;20.80;97.10;;;;;;4971201;28;20035;-34
2023/10/12 15:23:21;;;;;;;10.00;3.60;;;20.80;97.10;;;;;;4972181;28;20091;-37
2023/10/12 15:25:48;;;;;;;10.52;3.72;;;20.80;97.10;;;;;;4974762;28;20031;-35
2023/10/12 15:28:15;;;;;;;13.02;3.58;;;20.80;97.10;;;;;;4973565;28;20125;-35